Strona główna
METAR-TAF:

METAR-TAF

Lotnisko :

Auburn, Indiana, Stany Zjednoczone

Szerokość geograficzna: 41-18-26N, Długość geograficzna: 085-03-52W, wysokość: 268 m

Aktualna obserwacja pogody

Raport powstał 21 minut temu, godzina 17:55 UTC
Wiatr 7 kt od zachodnio-północny zachód
Temperatura 31°C
Wilgotność 63%
Ciśnienie 1019 hPa
Widzialność: 16.1 km
Rozproszone chmury na wysokości 3200 ft
Rozproszone chmury na wysokości 4500 ft

METAR: KGWB 151755Z AUTO 29007KT 10SM SCT032 SCT045 31/23 A3009 RMK AO2

czas: 14:16 (18:16 UTC)


TAF: brakujący

Obserwacja i prognoza pogody dla ponad 4000 lotnisk (raport METAR i TAF).

Dostępne stacje oznaczono żółtymi i czerwonymi punktami na mapie.

Najedź kursorem aby zobaczyć nazwę stacji.

Kliknij aby zobaczyć obserwacje i prognozy pogody.

Aby zmienić mapę: kliknij na zielony przycisk z czarnym krzyżykiem, aby powiększyć; na zielony przycisk z myślnikiem, aby pomniejszyć; na zielone strzałki, aby przejść do map sąsiednich.


METAR-TAF: